createdAt,value
2023-05-09T08:23:49.267Z,29.84
2023-05-09T08:28:46.862Z,27.94
2023-05-09T08:33:41.703Z,28.01
2023-05-09T08:38:36.386Z,29.02
2023-05-09T08:43:30.097Z,28.43
2023-05-09T08:48:24.082Z,30.38
2023-05-09T08:53:16.880Z,28.89
2023-05-09T08:58:12.287Z,30.84
2023-05-09T09:03:08.559Z,31.16
2023-05-09T09:08:01.409Z,32.64
2023-05-09T09:12:54.737Z,31.05
2023-05-09T09:17:52.016Z,32.29
2023-05-09T09:22:48.041Z,32.19
2023-05-09T09:27:41.913Z,32.90
2023-05-09T09:32:34.651Z,33.30
2023-05-09T09:37:26.615Z,33.82
2023-05-09T09:42:19.362Z,32.95
2023-05-09T09:47:11.799Z,31.26
2023-05-09T09:52:04.453Z,30.12
2023-05-09T09:56:56.650Z,30.36
2023-05-09T10:01:58.624Z,30.56
2023-05-09T10:06:54.247Z,31.12
2023-05-09T10:11:49.403Z,32.42
2023-05-09T10:16:44.306Z,33.98
2023-05-09T10:21:38.133Z,33.86
2023-05-09T10:26:34.001Z,34.16
2023-05-09T10:31:35.304Z,34.46
2023-05-09T10:36:29.291Z,34.76
2023-05-09T10:41:22.881Z,34.24
2023-05-09T10:46:16.752Z,35.28
2023-05-09T10:51:10.608Z,35.63
2023-05-09T10:56:03.967Z,34.54
2023-05-09T11:00:58.500Z,35.14
2023-05-09T11:05:54.247Z,35.11
2023-05-09T11:10:47.312Z,35.54
2023-05-09T11:16:02.322Z,34.85
2023-05-09T11:20:54.702Z,34.13
2023-05-09T11:25:49.329Z,34.14
2023-05-09T11:30:44.892Z,35.79
2023-05-09T11:35:39.261Z,35.09
2023-05-09T11:40:34.334Z,34.24
2023-05-09T11:45:31.195Z,34.03
2023-05-09T11:50:24.423Z,34.97
2023-05-09T11:55:19.526Z,34.29
2023-05-09T12:00:12.250Z,33.20
2023-05-09T12:05:11.501Z,33.06
2023-05-09T12:10:06.934Z,33.47
2023-05-09T12:15:05.138Z,31.65
2023-05-09T12:19:59.999Z,31.33
2023-05-09T12:24:52.941Z,31.16
2023-05-09T12:29:47.627Z,32.77
2023-05-09T12:34:40.119Z,33.32
2023-05-09T12:39:31.846Z,32.90
2023-05-09T12:44:28.225Z,32.22
2023-05-09T12:49:21.952Z,29.98
2023-05-09T12:54:19.935Z,32.73
2023-05-09T12:59:14.852Z,31.88
2023-05-09T13:04:10.542Z,32.42
2023-05-09T13:09:06.641Z,32.94
2023-05-09T13:13:59.287Z,35.39
2023-05-09T13:18:52.950Z,35.22
2023-05-09T13:23:46.919Z,35.59
2023-05-09T13:28:38.619Z,35.11
2023-05-09T13:33:30.737Z,35.57
2023-05-09T13:38:23.305Z,35.44
2023-05-09T13:43:15.766Z,35.65
2023-05-09T13:48:07.713Z,35.95
2023-05-09T13:53:02.289Z,36.40
2023-05-09T13:57:54.254Z,36.62
2023-05-09T14:02:47.374Z,36.38
2023-05-09T14:07:39.326Z,36.64
2023-05-09T14:12:31.253Z,36.64
2023-05-09T14:17:23.214Z,38.36
2023-05-09T14:22:18.916Z,49.72
2023-05-09T14:27:10.756Z,56.73
2023-05-09T14:32:03.213Z,56.76
2023-05-09T14:36:54.963Z,55.82
2023-05-09T14:41:50.087Z,55.33
2023-05-09T14:46:41.930Z,55.56
2023-05-09T14:51:34.327Z,59.37
2023-05-09T14:56:26.866Z,62.74
2023-05-09T15:01:19.755Z,64.09
2023-05-09T15:06:13.515Z,65.29
2023-05-09T15:11:08.580Z,65.67
2023-05-09T15:16:02.585Z,66.51
2023-05-09T15:20:55.646Z,65.84
2023-05-09T15:27:03.535Z,65.86
2023-05-09T15:32:40.899Z,66.78
2023-05-09T15:50:05.186Z,68.82
2023-05-09T15:54:57.374Z,68.78
2023-05-09T15:59:50.830Z,69.75
2023-05-09T16:04:44.902Z,69.16
2023-05-09T16:09:37.601Z,68.85
2023-05-09T16:14:29.635Z,68.12
2023-05-09T16:19:25.339Z,68.97
2023-05-09T16:24:19.442Z,69.82
2023-05-09T16:29:12.910Z,69.23
2023-05-09T16:34:04.798Z,69.32
2023-05-09T16:38:56.660Z,70.46
2023-05-09T16:43:48.902Z,70.17
2023-05-09T16:48:43.280Z,69.90
2023-05-09T16:53:37.017Z,71.40
2023-05-09T16:58:28.868Z,71.24
2023-05-09T17:03:20.764Z,71.73
2023-05-09T17:08:13.287Z,71.30
2023-05-09T17:13:08.929Z,71.29
2023-05-09T17:18:02.182Z,71.74
2023-05-09T17:22:54.351Z,72.18
2023-05-09T17:27:46.119Z,73.32
2023-05-09T17:32:37.983Z,74.07
2023-05-09T17:37:29.814Z,73.68
2023-05-09T17:42:22.439Z,74.32
2023-05-09T17:47:15.589Z,74.51
2023-05-09T17:52:08.356Z,74.55
2023-05-09T17:57:06.154Z,75.48
2023-05-09T18:01:59.168Z,76.06
2023-05-09T18:06:55.318Z,76.41
2023-05-09T18:11:47.754Z,76.36
2023-05-09T18:16:41.316Z,76.16
2023-05-09T18:21:33.320Z,76.44
2023-05-09T18:26:25.606Z,76.38
2023-05-09T18:31:18.250Z,77.30
2023-05-09T18:36:12.115Z,78.83
2023-05-09T18:41:06.426Z,78.84
2023-05-09T18:45:59.770Z,81.21
2023-05-09T18:50:53.447Z,81.91
2023-05-09T18:55:46.413Z,82.23
2023-05-09T19:00:39.795Z,83.09
2023-05-09T19:05:32.736Z,83.11
2023-05-09T19:10:25.035Z,82.52
2023-05-09T19:15:16.986Z,81.16
2023-05-09T19:20:09.999Z,79.71
2023-05-09T19:25:01.998Z,79.90
2023-05-09T19:29:54.673Z,79.80
2023-05-09T19:34:48.145Z,80.57
2023-05-09T19:39:40.372Z,80.01
2023-05-09T19:44:32.977Z,79.30
2023-05-09T19:49:24.989Z,79.03
2023-05-09T19:54:17.393Z,79.58
2023-05-09T19:59:10.483Z,79.78
2023-05-09T20:04:04.115Z,79.24
2023-05-09T20:08:57.608Z,79.83
2023-05-09T20:13:51.786Z,79.74
2023-05-09T20:18:44.277Z,79.87
2023-05-09T20:23:36.929Z,79.81
2023-05-09T20:28:28.918Z,80.04
2023-05-09T20:33:24.394Z,80.10
2023-05-09T20:38:16.292Z,80.65
2023-05-09T20:43:08.062Z,80.74
2023-05-09T20:48:01.904Z,80.44
2023-05-09T20:52:55.308Z,80.74
2023-05-09T20:57:47.811Z,81.48
2023-05-09T21:02:40.730Z,81.79
2023-05-09T21:07:34.488Z,82.04
2023-05-09T21:12:26.319Z,81.96
2023-05-09T21:17:19.375Z,82.33
2023-05-09T21:22:13.598Z,82.32
2023-05-09T21:27:06.282Z,81.77
2023-05-09T21:32:00.392Z,82.23
2023-05-09T21:36:54.887Z,81.73
2023-05-09T21:41:46.926Z,81.88
2023-05-09T21:46:39.180Z,82.30
2023-05-09T21:51:31.921Z,82.36
2023-05-09T21:56:23.911Z,82.59
2023-05-09T22:01:17.391Z,82.60
2023-05-09T22:06:09.264Z,83.11
2023-05-09T22:11:01.121Z,82.96
2023-05-09T22:15:53.516Z,83.34
2023-05-09T22:20:45.456Z,83.53
2023-05-09T22:25:38.412Z,83.13
2023-05-09T22:30:31.547Z,83.67
2023-05-09T22:35:23.443Z,83.19
2023-05-09T22:40:16.661Z,82.77
2023-05-09T22:45:09.515Z,83.27
2023-05-09T22:50:03.527Z,83.16
2023-05-09T22:54:56.499Z,83.05
2023-05-09T22:59:49.456Z,83.38
2023-05-09T23:04:41.626Z,83.45
2023-05-09T23:09:35.036Z,83.56
2023-05-09T23:14:27.268Z,83.79
2023-05-09T23:19:20.089Z,83.87
2023-05-09T23:24:12.951Z,83.85
2023-05-09T23:29:06.228Z,83.61
2023-05-09T23:33:58.109Z,83.82
2023-05-09T23:38:50.066Z,83.84
2023-05-09T23:43:42.900Z,83.82
2023-05-09T23:48:34.997Z,83.67
2023-05-09T23:53:27.094Z,83.50
2023-05-09T23:58:19.084Z,83.60
